Cromwell, New Zealand
Current Conditions -  °F | °C
As of 5:30 AM on Saturday 25 Oct 2014 (Local Time) from NZCH Reporting Station
Clear Clear  
Wind Chill: 34°   Ceiling: Unl
Heat Index: 34°   Visibility: 6mi
Dew Point: 34°   Wind: 3mph
Humidity: 100%   Direction: 330°NNW
Pressure: 30.21"   Gusts: NA
Location:  45.04°S, 169.2°E
Report Text: NZCH 241730Z AUTO 33003KT 9999 NCD 01/01 Q1023 NOSIG
Loading
Personal Weather Stations






























Interactive Weather Map
Tropical Storm Tracking
New forecast layout! Learn more

10-Day Weather Forecast

Advertisements
Track Severe Weather on mobile